createdAt,value
2022-12-04T00:01:25.009Z,61.10
2022-12-04T00:03:56.020Z,59.08
2022-12-04T00:06:23.811Z,61.75
2022-12-04T00:08:51.368Z,64.00
2022-12-04T00:11:20.633Z,60.33
2022-12-04T00:13:47.382Z,52.65
2022-12-04T00:16:17.183Z,69.30
2022-12-04T00:18:44.291Z,64.20
2022-12-04T00:21:13.382Z,65.18
2022-12-04T00:23:40.377Z,62.80
2022-12-04T00:26:10.715Z,63.53
2022-12-04T00:28:37.610Z,59.50
2022-12-04T00:31:09.501Z,65.85
2022-12-04T00:33:36.631Z,69.50
2022-12-04T00:36:07.579Z,69.20
2022-12-04T00:38:34.947Z,61.05
2022-12-04T00:41:01.676Z,60.38
2022-12-04T00:43:29.305Z,61.60
2022-12-04T00:45:56.510Z,54.25
2022-12-04T00:48:23.440Z,59.90
2022-12-04T00:50:50.206Z,60.95
2022-12-04T00:53:16.910Z,58.55
2022-12-04T00:55:44.643Z,56.55
2022-12-04T00:58:11.854Z,56.30
2022-12-04T01:00:41.349Z,60.15
2022-12-04T01:03:09.260Z,62.20
2022-12-04T01:05:44.685Z,61.85
2022-12-04T01:08:12.683Z,58.40
2022-12-04T01:10:41.217Z,54.72
2022-12-04T01:13:08.639Z,55.87
2022-12-04T01:15:39.467Z,63.00
2022-12-04T01:18:06.677Z,61.92
2022-12-04T01:20:33.901Z,60.35
2022-12-04T01:23:00.505Z,66.82
2022-12-04T01:25:27.099Z,61.85
2022-12-04T01:27:53.865Z,66.97
2022-12-04T01:30:20.538Z,67.10
2022-12-04T01:32:47.172Z,64.03
2022-12-04T01:35:13.814Z,60.25
2022-12-04T01:37:40.453Z,57.83
2022-12-04T01:40:08.057Z,64.25
2022-12-04T01:42:34.658Z,61.63
2022-12-04T01:45:32.075Z,59.88
2022-12-04T01:48:13.478Z,64.72
2022-12-04T01:50:41.667Z,73.97
2022-12-04T01:53:08.659Z,67.45
2022-12-04T01:55:35.316Z,59.30
2022-12-04T01:58:03.106Z,64.78
2022-12-04T02:00:31.167Z,64.25
2022-12-04T02:02:58.942Z,62.95
2022-12-04T02:05:25.752Z,70.40
2022-12-04T02:07:57.233Z,69.75
2022-12-04T02:10:37.642Z,72.15
2022-12-04T02:13:20.969Z,76.68
2022-12-04T02:16:12.435Z,66.45
2022-12-04T02:19:09.796Z,64.10
2022-12-04T02:21:43.873Z,72.30
2022-12-04T02:24:25.755Z,77.10
2022-12-04T02:26:58.349Z,70.95
2022-12-04T02:29:33.884Z,77.15
2022-12-04T02:32:15.525Z,72.97
2022-12-04T02:34:51.321Z,82.90
2022-12-04T02:37:24.309Z,80.15
2022-12-04T02:39:55.281Z,83.45
2022-12-04T02:42:37.016Z,89.35
2022-12-04T02:45:10.192Z,89.13
2022-12-04T02:47:40.674Z,81.50
2022-12-04T02:50:12.852Z,86.45
2022-12-04T02:52:48.399Z,82.97
2022-12-04T02:55:21.966Z,83.97
2022-12-04T02:57:53.331Z,78.78
2022-12-04T03:00:21.438Z,87.82
2022-12-04T03:03:04.217Z,76.55
2022-12-04T03:05:41.269Z,93.75
2022-12-04T03:08:14.516Z,96.43
2022-12-04T03:10:47.333Z,102.68
2022-12-04T03:13:19.658Z,97.72
2022-12-04T03:16:13.328Z,99.13
2022-12-04T03:18:43.841Z,104.00
2022-12-04T03:21:14.438Z,100.50
2022-12-04T03:24:05.076Z,93.70
2022-12-04T03:26:46.943Z,89.93
2022-12-04T03:29:29.387Z,89.70
2022-12-04T03:32:04.988Z,112.65
2022-12-04T03:34:38.796Z,97.88
2022-12-04T03:37:12.205Z,91.15
2022-12-04T03:40:02.816Z,100.95
2022-12-04T03:42:42.481Z,102.53
2022-12-04T03:45:36.738Z,104.95
2022-12-04T03:48:10.133Z,114.70
2022-12-04T03:50:56.017Z,101.00
2022-12-04T03:53:39.190Z,103.28
2022-12-04T03:56:24.402Z,129.27
2022-12-04T03:58:59.349Z,141.18
2022-12-04T04:01:33.152Z,123.85
2022-12-04T04:04:04.625Z,119.43
2022-12-04T04:06:40.784Z,109.93
2022-12-04T04:09:13.041Z,148.40
2022-12-04T04:11:48.748Z,111.63
2022-12-04T04:14:50.582Z,150.63
2022-12-04T04:17:40.846Z,153.40
2022-12-04T04:20:32.815Z,123.07
2022-12-04T04:23:21.114Z,177.90
2022-12-04T04:25:47.994Z,139.73
2022-12-04T04:28:31.278Z,136.23
2022-12-04T04:31:12.885Z,143.80
2022-12-04T04:34:05.553Z,120.63
2022-12-04T04:37:02.078Z,164.45
2022-12-04T04:39:39.172Z,155.43
2022-12-04T04:42:08.908Z,152.38
2022-12-04T04:44:52.915Z,125.30
2022-12-04T04:47:35.968Z,132.00
2022-12-04T04:50:07.098Z,161.48
2022-12-04T04:52:35.870Z,166.25
2022-12-04T04:55:03.634Z,114.05
2022-12-04T04:57:34.039Z,157.93
2022-12-04T05:00:01.139Z,150.73
2022-12-04T05:02:28.100Z,146.07
2022-12-04T05:04:55.789Z,120.13
2022-12-04T05:07:22.382Z,117.18
2022-12-04T05:09:49.010Z,130.00
2022-12-04T05:12:15.592Z,145.52
2022-12-04T05:14:42.208Z,146.68
2022-12-04T05:17:12.604Z,154.73
2022-12-04T05:19:55.287Z,151.38
2022-12-04T05:22:27.275Z,144.40
2022-12-04T05:24:54.400Z,173.20
2022-12-04T05:27:22.726Z,145.40
2022-12-04T05:29:49.466Z,157.13
2022-12-04T05:32:16.206Z,131.20
2022-12-04T05:34:42.909Z,153.15
2022-12-04T05:37:09.581Z,131.05
2022-12-04T05:39:36.413Z,136.52
2022-12-04T05:42:03.216Z,119.97
2022-12-04T05:44:29.855Z,140.85
2022-12-04T05:46:56.574Z,141.25
2022-12-04T05:49:23.377Z,128.00
2022-12-04T05:51:51.188Z,129.75
2022-12-04T05:54:19.125Z,112.85
2022-12-04T05:56:45.925Z,116.38
2022-12-04T05:59:13.484Z,124.25
2022-12-04T06:01:40.507Z,107.50
2022-12-04T06:04:07.500Z,97.55
2022-12-04T06:06:34.187Z,100.43
2022-12-04T06:09:01.874Z,99.70
2022-12-04T06:11:34.513Z,116.90
2022-12-04T06:14:03.038Z,87.65
2022-12-04T06:16:31.924Z,106.17
2022-12-04T06:19:01.075Z,100.30
2022-12-04T06:21:30.939Z,93.38
2022-12-04T06:23:58.337Z,94.45
2022-12-04T06:26:25.493Z,99.03
2022-12-04T06:28:56.970Z,108.03
2022-12-04T06:31:25.183Z,100.22
2022-12-04T06:33:53.999Z,98.05
2022-12-04T06:36:21.818Z,112.55
2022-12-04T06:38:50.281Z,105.22
2022-12-04T06:41:20.525Z,99.73
2022-12-04T06:43:48.589Z,111.95
2022-12-04T06:46:18.989Z,115.53
2022-12-04T06:48:45.922Z,113.25
2022-12-04T06:51:21.247Z,114.70
2022-12-04T06:53:48.457Z,119.55
2022-12-04T06:56:23.908Z,103.50
2022-12-04T06:58:53.907Z,102.47
2022-12-04T07:01:23.711Z,93.13
2022-12-04T07:03:51.901Z,102.32
2022-12-04T07:06:39.259Z,107.97
2022-12-04T07:09:11.326Z,98.90
2022-12-04T07:11:39.312Z,105.65
2022-12-04T07:14:06.077Z,108.53
2022-12-04T07:16:40.064Z,106.00
2022-12-04T07:19:07.503Z,103.20
2022-12-04T07:21:34.713Z,111.05
2022-12-04T07:24:01.884Z,108.18
2022-12-04T07:26:30.502Z,117.80
2022-12-04T07:28:57.752Z,100.43
2022-12-04T07:31:26.359Z,232.00
2022-12-04T07:33:54.522Z,147.32
2022-12-04T07:36:23.011Z,109.50
2022-12-04T07:38:49.871Z,124.00
2022-12-04T07:41:17.551Z,118.47
2022-12-04T07:43:44.387Z,118.50
2022-12-04T07:46:15.425Z,115.95
2022-12-04T07:48:42.527Z,108.50
2022-12-04T07:51:12.254Z,109.85
2022-12-04T07:53:39.363Z,133.82
2022-12-04T07:56:06.704Z,124.57
2022-12-04T07:58:33.919Z,122.72
2022-12-04T08:01:16.255Z,118.95
2022-12-04T08:03:47.981Z,123.43
2022-12-04T08:06:20.066Z,124.93
2022-12-04T08:08:47.416Z,122.47
2022-12-04T08:11:17.264Z,129.05
2022-12-04T08:13:44.709Z,121.80
2022-12-04T08:16:12.866Z,132.25
2022-12-04T08:18:40.427Z,122.22
2022-12-04T08:21:12.095Z,114.22
2022-12-04T08:23:40.087Z,90.90
2022-12-04T08:26:07.528Z,111.25
2022-12-04T08:28:34.712Z,115.03
2022-12-04T08:31:06.740Z,85.38
2022-12-04T08:33:34.458Z,108.72
2022-12-04T08:36:01.561Z,106.03
2022-12-04T08:38:28.225Z,100.70
2022-12-04T08:40:54.858Z,102.63
2022-12-04T08:43:21.454Z,117.00
2022-12-04T08:46:07.937Z,104.82
2022-12-04T08:48:35.089Z,97.55
2022-12-04T08:51:03.970Z,93.70
2022-12-04T08:53:31.628Z,103.28
2022-12-04T08:56:00.935Z,102.47
2022-12-04T09:00:54.049Z,99.50
2022-12-04T09:03:26.079Z,86.93
2022-12-04T09:06:00.039Z,93.90
2022-12-04T09:08:26.683Z,103.25
2022-12-04T09:10:53.406Z,99.40
2022-12-04T09:13:20.077Z,87.97
2022-12-04T09:15:46.735Z,90.15
2022-12-04T09:18:13.410Z,92.65
2022-12-04T09:20:39.966Z,87.32
2022-12-04T09:23:06.553Z,94.88
2022-12-04T09:25:37.021Z,87.95
2022-12-04T09:28:04.601Z,98.35
2022-12-04T09:30:31.293Z,75.85
2022-12-04T09:32:58.086Z,81.85
2022-12-04T09:35:24.712Z,83.03
2022-12-04T09:37:51.441Z,81.93
2022-12-04T09:40:35.528Z,80.47
2022-12-04T09:43:44.138Z,90.10
2022-12-04T09:46:19.003Z,89.00
2022-12-04T09:48:48.738Z,75.57
2022-12-04T09:51:20.203Z,83.50
2022-12-04T09:54:23.944Z,92.60
2022-12-04T09:57:12.391Z,82.70
2022-12-04T09:59:39.033Z,94.53
2022-12-04T10:02:32.559Z,92.07
2022-12-04T10:04:59.532Z,85.68
2022-12-04T10:07:52.431Z,93.70
2022-12-04T10:10:40.577Z,77.70
2022-12-04T10:13:31.813Z,91.22
2022-12-04T10:16:04.269Z,79.40
2022-12-04T10:18:50.540Z,81.22
2022-12-04T10:21:41.761Z,87.90
2022-12-04T10:24:08.413Z,90.22
2022-12-04T10:26:41.009Z,94.57
2022-12-04T10:29:12.578Z,91.03
2022-12-04T10:31:40.408Z,100.07
2022-12-04T10:34:16.511Z,93.47
2022-12-04T10:36:49.175Z,92.72
2022-12-04T10:39:32.102Z,93.32
2022-12-04T10:42:25.411Z,90.75
2022-12-04T10:44:52.790Z,86.28
2022-12-04T10:47:22.180Z,99.10
2022-12-04T10:52:15.487Z,95.97
2022-12-04T10:54:51.338Z,92.10
2022-12-04T10:57:18.118Z,95.95
2022-12-04T10:59:55.071Z,98.57
2022-12-04T11:02:28.848Z,97.35
2022-12-04T11:05:22.289Z,95.57
2022-12-04T11:07:49.430Z,105.18
2022-12-04T11:10:36.704Z,92.75
2022-12-04T11:13:15.187Z,104.85
2022-12-04T11:15:50.606Z,105.63
2022-12-04T11:18:20.521Z,104.78
2022-12-04T11:21:08.280Z,103.45
2022-12-04T11:23:43.490Z,86.93
2022-12-04T11:26:11.778Z,101.97
2022-12-04T11:28:42.456Z,98.53
2022-12-04T11:31:16.677Z,82.30
2022-12-04T11:34:02.240Z,85.90
2022-12-04T11:36:40.587Z,97.82
2022-12-04T11:39:13.330Z,96.43
2022-12-04T11:41:40.518Z,82.15
2022-12-04T11:44:24.993Z,89.03
2022-12-04T11:46:54.984Z,92.78
2022-12-04T11:49:23.472Z,78.13
2022-12-04T11:52:29.971Z,90.83
2022-12-04T11:55:07.265Z,86.55
2022-12-04T11:57:45.500Z,92.97
2022-12-04T12:00:18.077Z,94.25
2022-12-04T12:03:11.301Z,91.07
2022-12-04T12:06:00.437Z,92.72
2022-12-04T12:08:55.305Z,92.38
2022-12-04T12:11:25.615Z,92.13
2022-12-04T12:13:59.145Z,95.63
2022-12-04T12:16:41.840Z,84.25
2022-12-04T12:19:43.706Z,87.20
2022-12-04T12:22:34.485Z,83.13
2022-12-04T12:25:22.379Z,90.78
2022-12-04T12:28:10.104Z,88.35
2022-12-04T12:31:15.150Z,87.80
2022-12-04T12:34:27.535Z,75.28
2022-12-04T12:37:00.531Z,88.20
2022-12-04T12:39:53.978Z,82.20
2022-12-04T12:42:30.855Z,84.95
2022-12-04T12:45:04.609Z,85.88
2022-12-04T12:47:39.780Z,81.40
2022-12-04T12:50:21.270Z,85.30
2022-12-04T12:52:58.894Z,100.07
2022-12-04T12:55:41.235Z,94.22
2022-12-04T12:58:26.177Z,85.30
2022-12-04T13:01:02.401Z,87.70
2022-12-04T13:03:53.766Z,81.60
2022-12-04T13:06:29.709Z,103.85
2022-12-04T13:09:11.581Z,94.80
2022-12-04T13:11:39.280Z,85.20
2022-12-04T13:14:06.203Z,103.95
2022-12-04T13:16:41.809Z,88.60
2022-12-04T13:19:08.618Z,107.47
2022-12-04T13:21:55.536Z,83.57
2022-12-04T13:24:44.274Z,91.50
2022-12-04T13:27:56.724Z,90.00
2022-12-04T13:30:27.521Z,100.45
2022-12-04T13:32:54.165Z,96.60
2022-12-04T13:35:32.876Z,92.65
2022-12-04T13:38:17.857Z,86.20
2022-12-04T13:40:54.311Z,85.53
2022-12-04T13:43:44.527Z,83.47
2022-12-04T13:46:49.423Z,88.13
2022-12-04T13:49:16.043Z,97.28
2022-12-04T13:51:44.225Z,98.35
2022-12-04T13:54:10.831Z,105.32
2022-12-04T13:56:42.470Z,98.25
2022-12-04T13:59:27.317Z,90.05
2022-12-04T14:02:07.922Z,94.70
2022-12-04T14:04:46.359Z,92.22
2022-12-04T14:07:26.810Z,98.63
2022-12-04T14:09:55.517Z,95.57
2022-12-04T14:12:29.559Z,104.32
2022-12-04T14:15:09.069Z,87.80
2022-12-04T14:17:38.647Z,94.20
2022-12-04T14:20:22.019Z,98.22
2022-12-04T14:22:49.116Z,94.28
2022-12-04T14:25:15.676Z,101.18
2022-12-04T14:27:42.167Z,93.13
2022-12-04T14:30:28.551Z,103.50
2022-12-04T14:33:06.596Z,110.88
2022-12-04T14:35:33.710Z,97.10
2022-12-04T14:38:04.018Z,105.72
2022-12-04T14:40:43.660Z,109.43
2022-12-04T14:43:21.997Z,117.72
2022-12-04T14:45:48.598Z,98.47
2022-12-04T14:48:47.499Z,106.95
2022-12-04T14:51:41.961Z,109.72
2022-12-04T14:54:31.297Z,114.43
2022-12-04T14:59:52.491Z,122.50
2022-12-04T15:02:39.617Z,116.85
2022-12-04T15:05:24.714Z,110.43
2022-12-04T15:07:56.453Z,99.32
2022-12-04T15:10:46.830Z,115.78
2022-12-04T15:13:21.389Z,110.85
2022-12-04T15:15:48.725Z,104.40
2022-12-04T15:18:18.157Z,98.03
2022-12-04T15:23:22.035Z,99.47
2022-12-04T15:25:54.728Z,101.30
2022-12-04T15:28:29.049Z,112.28
2022-12-04T15:30:58.121Z,102.65
2022-12-04T15:33:29.582Z,97.53
2022-12-04T15:36:09.992Z,108.40
2022-12-04T15:38:36.881Z,100.75
2022-12-04T15:41:03.508Z,103.97
2022-12-04T15:43:41.627Z,103.85
2022-12-04T15:46:36.093Z,104.20
2022-12-04T15:49:07.710Z,104.25
2022-12-04T15:51:34.636Z,100.18
2022-12-04T15:54:03.244Z,113.03
2022-12-04T15:56:30.055Z,104.50
2022-12-04T15:59:00.961Z,100.53
2022-12-04T16:01:37.540Z,102.50
2022-12-04T16:04:04.344Z,105.75
2022-12-04T16:06:33.377Z,100.00
2022-12-04T16:09:13.076Z,98.55
2022-12-04T16:11:41.051Z,103.85
2022-12-04T16:14:18.121Z,105.75
2022-12-04T16:16:50.708Z,110.00
2022-12-04T16:19:39.317Z,99.03
2022-12-04T16:22:21.642Z,105.20
2022-12-04T16:24:48.463Z,105.07
2022-12-04T16:27:17.908Z,98.13
2022-12-04T16:29:45.560Z,100.28
2022-12-04T16:32:17.271Z,116.03
2022-12-04T16:34:44.073Z,98.20
2022-12-04T16:37:13.684Z,97.57
2022-12-04T16:39:41.644Z,92.18
2022-12-04T16:42:22.804Z,101.80
2022-12-04T16:44:49.919Z,95.00
2022-12-04T16:47:17.382Z,81.80
2022-12-04T16:49:47.079Z,92.22
2022-12-04T16:52:14.047Z,97.25
2022-12-04T16:54:40.976Z,90.18
2022-12-04T16:57:08.597Z,79.60
2022-12-04T16:59:35.630Z,94.70
2022-12-04T17:02:03.909Z,88.00
2022-12-04T17:04:31.324Z,94.93
2022-12-04T17:06:57.991Z,83.80
2022-12-04T17:09:24.792Z,112.88
2022-12-04T17:11:51.499Z,100.82
2022-12-04T17:14:18.324Z,92.07
2022-12-04T17:16:47.771Z,84.18
2022-12-04T17:19:14.516Z,82.95
2022-12-04T17:21:41.753Z,82.75
2022-12-04T17:24:08.712Z,82.63
2022-12-04T17:26:35.555Z,94.82
2022-12-04T17:29:02.519Z,93.65
2022-12-04T17:31:29.323Z,92.47
2022-12-04T17:33:57.025Z,86.90
2022-12-04T17:36:26.273Z,96.38
2022-12-04T17:38:57.879Z,90.57
2022-12-04T17:41:25.395Z,102.60
2022-12-04T17:43:52.068Z,99.60
2022-12-04T17:46:21.711Z,90.93
2022-12-04T17:48:49.233Z,90.18
2022-12-04T17:51:22.718Z,91.93
2022-12-04T17:53:49.930Z,92.22
2022-12-04T17:56:20.016Z,101.97
2022-12-04T17:58:47.826Z,100.38
2022-12-04T18:01:20.963Z,88.20
2022-12-04T18:03:52.593Z,101.60
2022-12-04T18:06:45.739Z,105.97
2022-12-04T18:09:15.590Z,101.95
2022-12-04T18:11:46.842Z,95.40
2022-12-04T18:14:17.739Z,92.15
2022-12-04T18:16:46.999Z,91.95
2022-12-04T18:21:41.515Z,88.20
2022-12-04T18:24:08.561Z,73.43
2022-12-04T18:26:40.612Z,86.18
2022-12-04T18:29:08.815Z,91.10
2022-12-04T18:31:35.752Z,88.53
2022-12-04T18:34:02.433Z,85.53
2022-12-04T18:36:30.850Z,89.78
2022-12-04T18:39:00.613Z,79.23
2022-12-04T18:41:28.695Z,76.30
2022-12-04T18:46:24.531Z,86.47
2022-12-04T18:48:54.349Z,82.03
2022-12-04T18:51:32.908Z,79.30
2022-12-04T18:54:03.685Z,70.17
2022-12-04T18:56:32.333Z,70.13
2022-12-04T18:59:05.580Z,83.68
2022-12-04T19:01:32.388Z,73.80
2022-12-04T19:04:01.874Z,72.55
2022-12-04T19:06:33.393Z,80.38
2022-12-04T19:09:02.625Z,75.65
2022-12-04T19:11:29.256Z,78.90
2022-12-04T19:13:55.932Z,72.00
2022-12-04T19:16:22.718Z,74.47
2022-12-04T19:18:49.426Z,65.75
2022-12-04T19:21:17.578Z,84.97
2022-12-04T19:23:50.881Z,81.82
2022-12-04T19:26:18.216Z,73.85
2022-12-04T19:28:44.916Z,87.22
2022-12-04T19:31:20.712Z,78.65
2022-12-04T19:33:47.909Z,75.28
2022-12-04T19:36:14.682Z,84.18
2022-12-04T19:38:42.650Z,78.82
2022-12-04T19:41:13.202Z,84.05
2022-12-04T19:43:43.149Z,82.07
2022-12-04T19:46:12.446Z,72.47
2022-12-04T19:51:12.175Z,76.25
2022-12-04T19:53:41.101Z,73.00
2022-12-04T19:56:16.267Z,77.65
2022-12-04T19:58:43.109Z,73.72
2022-12-04T20:01:14.195Z,69.25
2022-12-04T20:03:41.137Z,73.53
2022-12-04T20:06:18.051Z,76.35
2022-12-04T20:08:46.066Z,71.38
2022-12-04T20:11:15.873Z,67.32
2022-12-04T20:13:43.837Z,85.05
2022-12-04T20:16:12.506Z,71.55
2022-12-04T20:18:40.309Z,65.45
2022-12-04T20:21:11.166Z,66.35
2022-12-04T20:23:43.319Z,82.35
2022-12-04T20:26:13.010Z,82.13
2022-12-04T20:28:40.613Z,80.72
2022-12-04T20:31:25.900Z,93.22
2022-12-04T20:33:53.825Z,83.90
2022-12-04T20:36:22.175Z,93.30
2022-12-04T20:38:49.564Z,87.43
2022-12-04T20:41:16.490Z,88.53
2022-12-04T20:43:43.945Z,82.35
2022-12-04T20:46:24.389Z,89.43
2022-12-04T20:48:53.493Z,91.97
2022-12-04T20:51:31.611Z,91.55
2022-12-04T20:53:59.958Z,96.15
2022-12-04T20:56:33.429Z,84.30
2022-12-04T20:59:02.309Z,98.93
2022-12-04T21:01:29.935Z,98.05
2022-12-04T21:03:58.906Z,101.35
2022-12-04T21:06:34.920Z,101.40
2022-12-04T21:09:07.333Z,107.30
2022-12-04T21:11:39.965Z,92.05
2022-12-04T21:14:30.943Z,95.32
2022-12-04T21:16:58.044Z,94.60
2022-12-04T21:19:25.400Z,86.43
2022-12-04T21:21:52.407Z,77.47
2022-12-04T21:24:21.386Z,88.50
2022-12-04T21:26:48.041Z,84.20
2022-12-04T21:29:15.784Z,81.28
2022-12-04T21:31:42.586Z,85.90
2022-12-04T21:34:12.456Z,77.10
2022-12-04T21:36:39.562Z,90.97
2022-12-04T21:39:06.667Z,74.25
2022-12-04T21:41:52.446Z,75.28
2022-12-04T21:44:20.510Z,84.25
2022-12-04T21:46:48.034Z,81.60
2022-12-04T21:49:15.301Z,71.55
2022-12-04T21:51:58.916Z,91.05
2022-12-04T21:54:29.411Z,81.95
2022-12-04T21:56:56.958Z,69.07
2022-12-04T21:59:25.400Z,80.22
2022-12-04T22:01:52.891Z,89.10
2022-12-04T22:04:19.641Z,83.00
2022-12-04T22:06:46.217Z,69.65
2022-12-04T22:09:13.293Z,93.68
2022-12-04T22:11:44.514Z,82.13
2022-12-04T22:14:12.491Z,80.65
2022-12-04T22:16:42.706Z,80.75
2022-12-04T22:19:11.626Z,75.22
2022-12-04T22:21:38.856Z,80.55
2022-12-04T22:24:05.940Z,76.20
2022-12-04T22:26:33.353Z,83.45
2022-12-04T22:29:00.426Z,86.85
2022-12-04T22:31:28.959Z,80.70
2022-12-04T22:33:58.151Z,72.60
2022-12-04T22:36:27.483Z,90.07
2022-12-04T22:41:38.586Z,90.28
2022-12-04T22:44:05.713Z,80.38
2022-12-04T22:46:32.921Z,77.72
2022-12-04T22:49:00.059Z,76.85
2022-12-04T22:51:27.383Z,87.60
2022-12-04T22:53:55.749Z,96.70
2022-12-04T22:56:25.377Z,70.47
2022-12-04T22:58:52.772Z,66.25
2022-12-04T23:01:24.367Z,79.82
2022-12-04T23:03:51.593Z,69.55
2022-12-04T23:06:23.307Z,80.75
2022-12-04T23:08:57.427Z,57.65
2022-12-04T23:11:25.137Z,79.32
2022-12-04T23:14:02.765Z,68.22
2022-12-04T23:16:31.781Z,69.88
2022-12-04T23:18:58.917Z,58.55
2022-12-04T23:21:26.215Z,75.47
2022-12-04T23:23:54.920Z,73.45
2022-12-04T23:26:25.316Z,67.18
2022-12-04T23:28:52.124Z,66.82
2022-12-04T23:31:18.960Z,68.10
2022-12-04T23:33:45.603Z,63.83
2022-12-04T23:36:13.472Z,63.42
2022-12-04T23:38:41.558Z,68.60
2022-12-04T23:41:12.288Z,71.47
2022-12-04T23:43:40.348Z,68.90
2022-12-04T23:46:11.358Z,67.10
2022-12-04T23:48:39.112Z,59.25
2022-12-04T23:51:06.145Z,52.03
2022-12-04T23:53:32.720Z,70.60
2022-12-04T23:56:09.847Z,54.78
2022-12-04T23:58:37.543Z,67.32
